sensor_id;sensor_type;location;lat;lon;timestamp;P1;P2;P0
56360;PMS7003;42611;51.132;13.588;2022-12-24T00:00:01;0.8;0.8;
56360;PMS7003;42611;51.132;13.588;2022-12-24T00:05:02;0.7;0.7;
56360;PMS7003;42611;51.132;13.588;2022-12-24T00:10:02;0.9;0.9;
56360;PMS7003;42611;51.132;13.588;2022-12-24T00:15:03;0.8;0.8;
56360;PMS7003;42611;51.132;13.588;2022-12-24T00:20:01;1.0;1.0;
56360;PMS7003;42611;51.132;13.588;2022-12-24T00:30:03;1.0;1.0;
56360;PMS7003;42611;51.132;13.588;2022-12-24T00:45:01;1.0;0.8;
56360;PMS7003;42611;51.132;13.588;2022-12-24T00:50:01;1.4;0.8;
56360;PMS7003;42611;51.132;13.588;2022-12-24T00:55:01;1.6;1.0;
56360;PMS7003;42611;51.132;13.588;2022-12-24T01:00:02;1.4;0.8;
56360;PMS7003;42611;51.132;13.588;2022-12-24T01:15:02;1.9;1.3;
56360;PMS7003;42611;51.132;13.588;2022-12-24T01:20:02;2.0;1.1;
56360;PMS7003;42611;51.132;13.588;2022-12-24T01:25:01;2.8;1.5;
56360;PMS7003;42611;51.132;13.588;2022-12-24T01:30:02;3.0;1.7;
56360;PMS7003;42611;51.132;13.588;2022-12-24T01:35:02;3.4;1.9;
56360;PMS7003;42611;51.132;13.588;2022-12-24T01:40:01;2.6;1.7;
56360;PMS7003;42611;51.132;13.588;2022-12-24T01:46:22;2.7;2.1;
56360;PMS7003;42611;51.132;13.588;2022-12-24T01:50:02;2.9;2.1;
56360;PMS7003;42611;51.132;13.588;2022-12-24T02:00:09;2.8;2.0;
56360;PMS7003;42611;51.132;13.588;2022-12-24T02:05:04;3.4;2.0;
56360;PMS7003;42611;51.132;13.588;2022-12-24T02:10:01;3.5;2.0;
56360;PMS7003;42611;51.132;13.588;2022-12-24T02:15:04;3.0;1.9;
56360;PMS7003;42611;51.132;13.588;2022-12-24T02:25:10;2.8;1.7;
56360;PMS7003;42611;51.132;13.588;2022-12-24T02:30:10;2.1;1.6;
56360;PMS7003;42611;51.132;13.588;2022-12-24T02:35:21;1.8;1.4;
56360;PMS7003;42611;51.132;13.588;2022-12-24T02:40:10;1.6;1.4;
56360;PMS7003;42611;51.132;13.588;2022-12-24T02:45:07;1.4;1.3;
56360;PMS7003;42611;51.132;13.588;2022-12-24T02:50:02;1.7;1.3;
56360;PMS7003;42611;51.132;13.588;2022-12-24T03:00:06;1.7;1.2;
56360;PMS7003;42611;51.132;13.588;2022-12-24T03:10:05;2.8;1.2;
56360;PMS7003;42611;51.132;13.588;2022-12-24T03:15:03;2.4;1.1;
56360;PMS7003;42611;51.132;13.588;2022-12-24T03:25:01;2.5;1.1;
56360;PMS7003;42611;51.132;13.588;2022-12-24T03:30:04;1.8;1.1;
56360;PMS7003;42611;51.132;13.588;2022-12-24T03:35:01;1.4;0.7;
56360;PMS7003;42611;51.132;13.588;2022-12-24T03:45:03;1.3;0.6;
56360;PMS7003;42611;51.132;13.588;2022-12-24T03:50:01;1.1;0.6;
56360;PMS7003;42611;51.132;13.588;2022-12-24T03:55:01;1.2;0.4;
56360;PMS7003;42611;51.132;13.588;2022-12-24T04:00:03;0.8;0.4;
56360;PMS7003;42611;51.132;13.588;2022-12-24T04:05:01;0.6;0.3;
56360;PMS7003;42611;51.132;13.588;2022-12-24T04:10:01;1.3;0.2;
56360;PMS7003;42611;51.132;13.588;2022-12-24T04:15:02;1.4;0.0;
56360;PMS7003;42611;51.132;13.588;2022-12-24T04:20:01;1.2;0.0;
56360;PMS7003;42611;51.132;13.588;2022-12-24T04:30:02;1.2;0.0;
56360;PMS7003;42611;51.132;13.588;2022-12-24T04:35:01;0.4;0.0;
56360;PMS7003;42611;51.132;13.588;2022-12-24T04:50:02;0.4;0.1;
56360;PMS7003;42611;51.132;13.588;2022-12-24T05:00:03;0.8;0.5;
56360;PMS7003;42611;51.132;13.588;2022-12-24T05:05:01;1.2;0.7;
56360;PMS7003;42611;51.132;13.588;2022-12-24T05:10:01;1.4;0.8;
56360;PMS7003;42611;51.132;13.588;2022-12-24T05:15:01;1.1;0.7;
56360;PMS7003;42611;51.132;13.588;2022-12-24T05:20:01;1.2;0.9;
56360;PMS7003;42611;51.132;13.588;2022-12-24T05:30:02;1.2;0.7;
56360;PMS7003;42611;51.132;13.588;2022-12-24T05:35:01;1.0;0.6;
56360;PMS7003;42611;51.132;13.588;2022-12-24T05:40:01;1.4;0.8;
56360;PMS7003;42611;51.132;13.588;2022-12-24T05:45:02;1.4;0.7;
56360;PMS7003;42611;51.132;13.588;2022-12-24T05:55:02;1.1;0.8;
56360;PMS7003;42611;51.132;13.588;2022-12-24T06:00:02;1.3;0.9;
56360;PMS7003;42611;51.132;13.588;2022-12-24T06:05:01;1.7;1.1;
56360;PMS7003;42611;51.132;13.588;2022-12-24T06:10:01;1.8;1.2;
56360;PMS7003;42611;51.132;13.588;2022-12-24T06:15:02;1.7;1.1;
56360;PMS7003;42611;51.132;13.588;2022-12-24T06:20:01;2.0;1.4;
56360;PMS7003;42611;51.132;13.588;2022-12-24T06:25:01;2.9;1.4;
56360;PMS7003;42611;51.132;13.588;2022-12-24T06:30:01;2.4;1.0;
56360;PMS7003;42611;51.132;13.588;2022-12-24T06:35:01;2.5;1.2;
56360;PMS7003;42611;51.132;13.588;2022-12-24T06:45:09;2.3;1.2;
56360;PMS7003;42611;51.132;13.588;2022-12-24T06:50:01;1.6;1.4;
56360;PMS7003;42611;51.132;13.588;2022-12-24T06:55:01;1.3;1.3;
56360;PMS7003;42611;51.132;13.588;2022-12-24T07:00:02;1.2;0.9;
56360;PMS7003;42611;51.132;13.588;2022-12-24T07:05:01;1.5;0.9;
56360;PMS7003;42611;51.132;13.588;2022-12-24T07:10:01;1.4;0.7;
56360;PMS7003;42611;51.132;13.588;2022-12-24T07:15:01;1.0;0.3;
56360;PMS7003;42611;51.132;13.588;2022-12-24T07:20:01;1.2;0.3;
56360;PMS7003;42611;51.132;13.588;2022-12-24T07:25:01;0.9;0.3;
56360;PMS7003;42611;51.132;13.588;2022-12-24T07:30:03;0.7;0.4;
56360;PMS7003;42611;51.132;13.588;2022-12-24T07:35:01;1.0;0.7;
56360;PMS7003;42611;51.132;13.588;2022-12-24T07:40:01;1.3;1.0;
56360;PMS7003;42611;51.132;13.588;2022-12-24T07:45:01;1.3;1.2;
56360;PMS7003;42611;51.132;13.588;2022-12-24T07:50:02;1.8;1.4;
56360;PMS7003;42611;51.132;13.588;2022-12-24T07:55:01;2.4;1.6;
56360;PMS7003;42611;51.132;13.588;2022-12-24T08:00:03;3.0;1.9;
56360;PMS7003;42611;51.132;13.588;2022-12-24T08:05:01;3.4;1.8;
56360;PMS7003;42611;51.132;13.588;2022-12-24T08:15:01;3.2;1.6;
56360;PMS7003;42611;51.132;13.588;2022-12-24T08:20:01;2.3;1.0;
56360;PMS7003;42611;51.132;13.588;2022-12-24T08:25:01;1.9;0.6;
56360;PMS7003;42611;51.132;13.588;2022-12-24T08:30:02;1.5;0.6;
56360;PMS7003;42611;51.132;13.588;2022-12-24T08:40:01;1.7;0.6;
56360;PMS7003;42611;51.132;13.588;2022-12-24T08:45:01;1.8;0.6;
56360;PMS7003;42611;51.132;13.588;2022-12-24T08:50:01;1.4;0.6;
56360;PMS7003;42611;51.132;13.588;2022-12-24T08:55:01;1.0;0.5;
56360;PMS7003;42611;51.132;13.588;2022-12-24T09:00:05;1.1;0.6;
56360;PMS7003;42611;51.132;13.588;2022-12-24T09:05:01;1.3;0.8;
56360;PMS7003;42611;51.132;13.588;2022-12-24T09:10:02;1.8;1.0;
56360;PMS7003;42611;51.132;13.588;2022-12-24T09:15:05;1.9;1.0;
56360;PMS7003;42611;51.132;13.588;2022-12-24T09:20:01;2.3;1.2;
56360;PMS7003;42611;51.132;13.588;2022-12-24T09:25:01;2.4;1.2;
56360;PMS7003;42611;51.132;13.588;2022-12-24T09:30:02;2.1;1.3;
56360;PMS7003;42611;51.132;13.588;2022-12-24T09:35:01;1.8;1.1;
56360;PMS7003;42611;51.132;13.588;2022-12-24T09:40:02;1.6;0.8;
56360;PMS7003;42611;51.132;13.588;2022-12-24T09:45:42;1.4;0.8;
56360;PMS7003;42611;51.132;13.588;2022-12-24T09:55:04;1.6;1.1;
56360;PMS7003;42611;51.132;13.588;2022-12-24T10:00:02;2.1;1.4;
56360;PMS7003;42611;51.132;13.588;2022-12-24T10:05:13;2.3;1.8;
56360;PMS7003;42611;51.132;13.588;2022-12-24T10:11:07;2.5;1.8;
56360;PMS7003;42611;51.132;13.588;2022-12-24T10:15:24;2.5;1.8;
56360;PMS7003;42611;51.132;13.588;2022-12-24T10:20:07;2.8;2.0;
56360;PMS7003;42611;51.132;13.588;2022-12-24T10:25:05;3.0;2.4;
56360;PMS7003;42611;51.132;13.588;2022-12-24T10:30:21;3.1;2.4;
56360;PMS7003;42611;51.132;13.588;2022-12-24T10:35:18;2.9;2.2;
56360;PMS7003;42611;51.132;13.588;2022-12-24T10:40:01;3.3;2.6;
56360;PMS7003;42611;51.132;13.588;2022-12-24T10:45:03;3.4;2.7;
56360;PMS7003;42611;51.132;13.588;2022-12-24T10:55:04;4.2;2.7;
56360;PMS7003;42611;51.132;13.588;2022-12-24T11:00:20;4.5;3.0;
56360;PMS7003;42611;51.132;13.588;2022-12-24T11:05:07;3.8;2.4;
56360;PMS7003;42611;51.132;13.588;2022-12-24T11:10:02;3.4;2.2;
56360;PMS7003;42611;51.132;13.588;2022-12-24T11:15:15;3.0;2.0;
56360;PMS7003;42611;51.132;13.588;2022-12-24T11:20:06;2.4;1.4;
56360;PMS7003;42611;51.132;13.588;2022-12-24T11:25:13;2.6;1.4;
56360;PMS7003;42611;51.132;13.588;2022-12-24T11:30:30;2.7;1.4;
56360;PMS7003;42611;51.132;13.588;2022-12-24T11:35:04;2.5;1.3;
56360;PMS7003;42611;51.132;13.588;2022-12-24T11:40:17;2.1;1.3;
56360;PMS7003;42611;51.132;13.588;2022-12-24T11:45:05;2.0;1.5;
56360;PMS7003;42611;51.132;13.588;2022-12-24T11:50:27;2.4;1.6;
56360;PMS7003;42611;51.132;13.588;2022-12-24T11:55:20;2.7;2.0;
56360;PMS7003;42611;51.132;13.588;2022-12-24T12:00:01;3.0;2.3;
56360;PMS7003;42611;51.132;13.588;2022-12-24T12:05:04;3.7;2.7;
56360;PMS7003;42611;51.132;13.588;2022-12-24T12:10:04;3.8;2.8;
56360;PMS7003;42611;51.132;13.588;2022-12-24T12:15:24;3.7;2.9;
56360;PMS7003;42611;51.132;13.588;2022-12-24T12:25:01;3.4;2.2;
56360;PMS7003;42611;51.132;13.588;2022-12-24T12:30:05;2.8;1.8;
56360;PMS7003;42611;51.132;13.588;2022-12-24T12:35:39;2.6;1.4;
56360;PMS7003;42611;51.132;13.588;2022-12-24T12:40:15;1.8;1.0;
56360;PMS7003;42611;51.132;13.588;2022-12-24T12:55:21;1.2;1.0;
56360;PMS7003;42611;51.132;13.588;2022-12-24T13:00:06;1.4;1.4;
56360;PMS7003;42611;51.132;13.588;2022-12-24T13:15:25;2.1;1.8;
56360;PMS7003;42611;51.132;13.588;2022-12-24T13:20:34;2.4;2.1;
56360;PMS7003;42611;51.132;13.588;2022-12-24T13:25:01;2.1;1.9;
56360;PMS7003;42611;51.132;13.588;2022-12-24T13:30:31;1.9;1.7;
56360;PMS7003;42611;51.132;13.588;2022-12-24T13:35:03;2.6;1.7;
56360;PMS7003;42611;51.132;13.588;2022-12-24T13:50:11;2.6;1.6;
56360;PMS7003;42611;51.132;13.588;2022-12-24T13:55:03;3.0;1.8;
56360;PMS7003;42611;51.132;13.588;2022-12-24T14:00:24;1.8;1.4;
56360;PMS7003;42611;51.132;13.588;2022-12-24T14:05:02;1.7;1.6;
56360;PMS7003;42611;51.132;13.588;2022-12-24T14:10:01;1.5;1.4;
56360;PMS7003;42611;51.132;13.588;2022-12-24T14:15:59;1.4;1.2;
56360;PMS7003;42611;51.132;13.588;2022-12-24T14:20:01;1.0;1.0;
56360;PMS7003;42611;51.132;13.588;2022-12-24T14:25:02;1.3;1.3;
56360;PMS7003;42611;51.132;13.588;2022-12-24T14:30:15;0.9;0.9;
56360;PMS7003;42611;51.132;13.588;2022-12-24T14:35:05;1.0;1.0;
56360;PMS7003;42611;51.132;13.588;2022-12-24T14:40:01;1.7;1.5;
56360;PMS7003;42611;51.132;13.588;2022-12-24T14:55:25;2.8;2.2;
56360;PMS7003;42611;51.132;13.588;2022-12-24T15:00:21;2.8;2.3;
56360;PMS7003;42611;51.132;13.588;2022-12-24T15:05:05;2.5;2.0;
56360;PMS7003;42611;51.132;13.588;2022-12-24T15:10:22;2.0;1.6;
56360;PMS7003;42611;51.132;13.588;2022-12-24T15:15:02;2.0;1.6;
56360;PMS7003;42611;51.132;13.588;2022-12-24T15:20:01;2.3;1.9;
56360;PMS7003;42611;51.132;13.588;2022-12-24T15:25:01;2.5;2.2;
56360;PMS7003;42611;51.132;13.588;2022-12-24T15:30:12;2.6;2.0;
56360;PMS7003;42611;51.132;13.588;2022-12-24T15:35:01;2.8;1.8;
56360;PMS7003;42611;51.132;13.588;2022-12-24T15:40:16;2.9;1.8;
56360;PMS7003;42611;51.132;13.588;2022-12-24T15:45:10;2.9;1.9;
56360;PMS7003;42611;51.132;13.588;2022-12-24T15:50:08;2.8;1.8;
56360;PMS7003;42611;51.132;13.588;2022-12-24T15:55:01;2.6;2.1;
56360;PMS7003;42611;51.132;13.588;2022-12-24T16:00:02;2.4;2.2;
56360;PMS7003;42611;51.132;13.588;2022-12-24T16:05:32;2.2;2.1;
56360;PMS7003;42611;51.132;13.588;2022-12-24T16:10:01;2.3;2.3;
56360;PMS7003;42611;51.132;13.588;2022-12-24T16:15:01;2.5;2.5;
56360;PMS7003;42611;51.132;13.588;2022-12-24T16:20:03;2.2;2.2;
56360;PMS7003;42611;51.132;13.588;2022-12-24T16:25:24;2.4;2.3;
56360;PMS7003;42611;51.132;13.588;2022-12-24T16:30:01;2.8;2.6;
56360;PMS7003;42611;51.132;13.588;2022-12-24T16:35:04;2.6;2.4;
56360;PMS7003;42611;51.132;13.588;2022-12-24T16:40:01;2.2;2.0;
56360;PMS7003;42611;51.132;13.588;2022-12-24T16:45:03;2.9;2.7;
56360;PMS7003;42611;51.132;13.588;2022-12-24T16:55:01;3.2;3.2;
56360;PMS7003;42611;51.132;13.588;2022-12-24T17:00:09;4.4;4.0;
56360;PMS7003;42611;51.132;13.588;2022-12-24T17:05:01;5.9;5.5;
56360;PMS7003;42611;51.132;13.588;2022-12-24T17:10:01;6.6;5.9;
56360;PMS7003;42611;51.132;13.588;2022-12-24T17:15:01;7.8;7.1;
56360;PMS7003;42611;51.132;13.588;2022-12-24T17:20:01;9.0;8.2;
56360;PMS7003;42611;51.132;13.588;2022-12-24T17:25:01;9.5;8.6;
56360;PMS7003;42611;51.132;13.588;2022-12-24T17:30:02;10.3;9.2;
56360;PMS7003;42611;51.132;13.588;2022-12-24T17:35:06;11.1;9.8;
56360;PMS7003;42611;51.132;13.588;2022-12-24T17:40:01;11.3;9.9;
56360;PMS7003;42611;51.132;13.588;2022-12-24T17:45:07;10.9;9.6;
56360;PMS7003;42611;51.132;13.588;2022-12-24T17:50:01;9.9;9.1;
56360;PMS7003;42611;51.132;13.588;2022-12-24T17:55:01;10.0;9.1;
56360;PMS7003;42611;51.132;13.588;2022-12-24T18:00:01;10.5;9.5;
56360;PMS7003;42611;51.132;13.588;2022-12-24T18:05:01;12.2;11.1;
56360;PMS7003;42611;51.132;13.588;2022-12-24T18:10:01;15.4;13.8;
56360;PMS7003;42611;51.132;13.588;2022-12-24T18:15:01;17.7;15.7;
56360;PMS7003;42611;51.132;13.588;2022-12-24T18:20:01;19.4;17.0;
56360;PMS7003;42611;51.132;13.588;2022-12-24T18:25:03;23.0;20.4;
56360;PMS7003;42611;51.132;13.588;2022-12-24T18:30:01;24.8;21.6;
56360;PMS7003;42611;51.132;13.588;2022-12-24T18:35:01;25.2;21.6;
56360;PMS7003;42611;51.132;13.588;2022-12-24T18:40:01;26.0;22.5;
56360;PMS7003;42611;51.132;13.588;2022-12-24T18:45:07;25.2;22.2;
56360;PMS7003;42611;51.132;13.588;2022-12-24T18:50:01;21.4;18.7;
56360;PMS7003;42611;51.132;13.588;2022-12-24T18:55:06;19.3;17.3;
56360;PMS7003;42611;51.132;13.588;2022-12-24T19:00:12;17.2;15.6;
56360;PMS7003;42611;51.132;13.588;2022-12-24T19:05:01;15.8;14.3;
56360;PMS7003;42611;51.132;13.588;2022-12-24T19:10:06;14.8;13.3;
56360;PMS7003;42611;51.132;13.588;2022-12-24T19:15:02;15.0;13.6;
56360;PMS7003;42611;51.132;13.588;2022-12-24T19:20:02;14.6;13.1;
56360;PMS7003;42611;51.132;13.588;2022-12-24T19:25:01;14.5;12.6;
56360;PMS7003;42611;51.132;13.588;2022-12-24T19:30:02;13.6;11.9;
56360;PMS7003;42611;51.132;13.588;2022-12-24T19:35:01;13.9;12.2;
56360;PMS7003;42611;51.132;13.588;2022-12-24T19:40:06;13.4;11.9;
56360;PMS7003;42611;51.132;13.588;2022-12-24T19:45:07;13.8;11.9;
56360;PMS7003;42611;51.132;13.588;2022-12-24T19:50:02;13.5;12.3;
56360;PMS7003;42611;51.132;13.588;2022-12-24T19:55:01;15.3;13.7;
56360;PMS7003;42611;51.132;13.588;2022-12-24T20:00:04;16.1;14.3;
56360;PMS7003;42611;51.132;13.588;2022-12-24T20:05:06;18.3;16.4;
56360;PMS7003;42611;51.132;13.588;2022-12-24T20:10:06;20.0;18.3;
56360;PMS7003;42611;51.132;13.588;2022-12-24T20:15:01;21.8;19.4;
56360;PMS7003;42611;51.132;13.588;2022-12-24T20:20:07;21.0;19.0;
56360;PMS7003;42611;51.132;13.588;2022-12-24T20:25:06;18.8;16.8;
56360;PMS7003;42611;51.132;13.588;2022-12-24T20:30:07;18.4;16.2;
56360;PMS7003;42611;51.132;13.588;2022-12-24T20:35:07;16.3;14.0;
56360;PMS7003;42611;51.132;13.588;2022-12-24T20:40:06;14.1;12.5;
56360;PMS7003;42611;51.132;13.588;2022-12-24T20:45:07;13.9;11.9;
56360;PMS7003;42611;51.132;13.588;2022-12-24T20:50:06;14.9;12.6;
56360;PMS7003;42611;51.132;13.588;2022-12-24T20:55:02;13.0;11.2;
56360;PMS7003;42611;51.132;13.588;2022-12-24T21:00:02;11.6;10.2;
56360;PMS7003;42611;51.132;13.588;2022-12-24T21:05:07;10.9;9.5;
56360;PMS7003;42611;51.132;13.588;2022-12-24T21:10:01;9.5;8.3;
56360;PMS7003;42611;51.132;13.588;2022-12-24T21:15:09;7.8;7.2;
56360;PMS7003;42611;51.132;13.588;2022-12-24T21:20:07;7.5;6.6;
56360;PMS7003;42611;51.132;13.588;2022-12-24T21:25:08;7.2;5.8;
56360;PMS7003;42611;51.132;13.588;2022-12-24T21:30:03;7.7;6.3;
56360;PMS7003;42611;51.132;13.588;2022-12-24T21:40:11;9.6;7.2;
56360;PMS7003;42611;51.132;13.588;2022-12-24T21:45:07;10.1;7.0;
56360;PMS7003;42611;51.132;13.588;2022-12-24T21:50:06;10.8;7.7;
56360;PMS7003;42611;51.132;13.588;2022-12-24T21:55:01;10.4;7.0;
56360;PMS7003;42611;51.132;13.588;2022-12-24T22:00:02;11.3;7.4;
56360;PMS7003;42611;51.132;13.588;2022-12-24T22:05:01;10.4;7.5;
56360;PMS7003;42611;51.132;13.588;2022-12-24T22:10:02;9.6;7.4;
56360;PMS7003;42611;51.132;13.588;2022-12-24T22:15:05;9.4;7.2;
56360;PMS7003;42611;51.132;13.588;2022-12-24T22:20:01;9.3;7.3;
56360;PMS7003;42611;51.132;13.588;2022-12-24T22:25:01;9.8;7.7;
56360;PMS7003;42611;51.132;13.588;2022-12-24T22:30:02;9.5;7.6;
56360;PMS7003;42611;51.132;13.588;2022-12-24T22:35:07;10.0;8.2;
56360;PMS7003;42611;51.132;13.588;2022-12-24T22:45:08;9.2;7.6;
56360;PMS7003;42611;51.132;13.588;2022-12-24T22:50:01;8.3;6.9;
56360;PMS7003;42611;51.132;13.588;2022-12-24T22:55:02;7.4;6.0;
56360;PMS7003;42611;51.132;13.588;2022-12-24T23:00:08;6.7;5.6;
56360;PMS7003;42611;51.132;13.588;2022-12-24T23:05:07;6.8;5.5;
56360;PMS7003;42611;51.132;13.588;2022-12-24T23:10:01;7.1;5.6;
56360;PMS7003;42611;51.132;13.588;2022-12-24T23:15:03;6.8;5.5;
56360;PMS7003;42611;51.132;13.588;2022-12-24T23:20:01;6.0;4.7;
56360;PMS7003;42611;51.132;13.588;2022-12-24T23:25:11;5.6;4.3;
56360;PMS7003;42611;51.132;13.588;2022-12-24T23:30:02;5.4;4.4;
56360;PMS7003;42611;51.132;13.588;2022-12-24T23:35:01;6.8;5.6;
56360;PMS7003;42611;51.132;13.588;2022-12-24T23:40:02;6.2;5.2;
56360;PMS7003;42611;51.132;13.588;2022-12-24T23:45:01;8.0;6.5;
56360;PMS7003;42611;51.132;13.588;2022-12-24T23:50:01;9.0;7.2;
56360;PMS7003;42611;51.132;13.588;2022-12-24T23:55:06;8.8;7.4;
